N395T KCRE-KBKW
Flight info
| Callsign | N395T |
|---|---|
| Flight time | 1h 17m |
| Altitude | 24000 |
| Route | SDZ GSO NUPME |
| Aircraft | PC12/L-SDFGRWY/S |
Departure
| Time | 2026-05-06 14:49 |
|---|---|
| Airport | Grand Strand Airport (KCRE) |
Arrival
| Time | 2026-05-06 16:06 |
|---|---|
| Airport | Raleigh County Memorial Airport (KBKW) |
| Time | Latitude | Longitude | Altitude | Speed | Heading |
|---|---|---|---|---|---|
| 2026-05-06 14:27 | 33.81052 | -78.72173 | 36 ft | 0 kts | 46° |
| 2026-05-06 14:44 | 33.81062 | -78.72160 | 36 ft | 5 kts | 35° |
| 2026-05-06 14:44 | 33.81082 | -78.72195 | 36 ft | 7 kts | 269° |
| 2026-05-06 14:45 | 33.81163 | -78.72269 | 35 ft | 11 kts | 45° |
| 2026-05-06 14:45 | 33.81228 | -78.72187 | 35 ft | 16 kts | 45° |
| 2026-05-06 14:45 | 33.81313 | -78.72082 | 35 ft | 19 kts | 46° |
| 2026-05-06 14:45 | 33.81411 | -78.71960 | 35 ft | 18 kts | 46° |
| 2026-05-06 14:46 | 33.81506 | -78.71842 | 35 ft | 21 kts | 46° |
| 2026-05-06 14:46 | 33.81596 | -78.71730 | 34 ft | 15 kts | 46° |
| 2026-05-06 14:46 | 33.81656 | -78.71656 | 34 ft | 8 kts | 46° |
| 2026-05-06 14:46 | 33.81679 | -78.71632 | 34 ft | 2 kts | 3° |
| 2026-05-06 14:47 | 33.81683 | -78.71632 | 34 ft | 0 kts | 353° |
| 2026-05-06 14:47 | 33.81692 | -78.71634 | 34 ft | 4 kts | 352° |
| 2026-05-06 14:48 | 33.81727 | -78.71670 | 33 ft | 8 kts | 311° |
| 2026-05-06 14:48 | 33.81737 | -78.71695 | 33 ft | 2 kts | 249° |
| 2026-05-06 14:48 | 33.81718 | -78.71721 | 33 ft | 13 kts | 225° |
| 2026-05-06 14:48 | 33.81521 | -78.71964 | 35 ft | 68 kts | 226° |
| 2026-05-06 14:49 | 33.81126 | -78.72451 | 227 ft | 89 kts | 226° |
| 2026-05-06 14:49 | 33.80655 | -78.73056 | 494 ft | 108 kts | 232° |
| 2026-05-06 14:49 | 33.80327 | -78.73935 | 917 ft | 127 kts | 259° |
| 2026-05-06 14:49 | 33.80575 | -78.74953 | 1624 ft | 138 kts | 304° |
| 2026-05-06 14:50 | 33.81382 | -78.75706 | 2106 ft | 162 kts | 324° |
| 2026-05-06 14:50 | 33.82445 | -78.76360 | 2780 ft | 178 kts | 330° |
| 2026-05-06 14:50 | 33.83586 | -78.77004 | 3263 ft | 183 kts | 329° |
| 2026-05-06 14:50 | 33.84771 | -78.77712 | 3660 ft | 198 kts | 329° |
| 2026-05-06 14:51 | 33.86049 | -78.78466 | 4023 ft | 207 kts | 329° |
| 2026-05-06 14:51 | 33.87374 | -78.79235 | 4385 ft | 212 kts | 330° |
| 2026-05-06 14:51 | 33.88682 | -78.79994 | 4751 ft | 211 kts | 329° |
| 2026-05-06 14:51 | 33.90008 | -78.80766 | 5127 ft | 207 kts | 329° |
| 2026-05-06 14:52 | 33.91297 | -78.81518 | 5497 ft | 209 kts | 329° |
| 2026-05-06 14:52 | 33.92550 | -78.82249 | 5839 ft | 207 kts | 329° |
| 2026-05-06 14:52 | 33.93834 | -78.82995 | 6213 ft | 204 kts | 328° |
| 2026-05-06 14:52 | 33.95105 | -78.83737 | 6584 ft | 203 kts | 328° |
| 2026-05-06 14:53 | 33.96362 | -78.84472 | 6932 ft | 201 kts | 328° |
| 2026-05-06 14:53 | 33.97626 | -78.85212 | 7288 ft | 200 kts | 328° |
| 2026-05-06 14:53 | 33.98876 | -78.85943 | 7649 ft | 199 kts | 328° |
| 2026-05-06 14:53 | 34.00116 | -78.86667 | 8007 ft | 197 kts | 328° |
| 2026-05-06 14:54 | 34.01349 | -78.87387 | 8378 ft | 196 kts | 327° |
| 2026-05-06 14:54 | 34.02570 | -78.88102 | 8748 ft | 195 kts | 327° |
| 2026-05-06 14:54 | 34.03781 | -78.88811 | 9122 ft | 195 kts | 327° |
| 2026-05-06 14:54 | 34.04999 | -78.89524 | 9504 ft | 194 kts | 327° |
| 2026-05-06 14:55 | 34.06215 | -78.90235 | 9885 ft | 194 kts | 327° |
| 2026-05-06 14:55 | 34.07428 | -78.90943 | 10245 ft | 193 kts | 327° |
| 2026-05-06 14:55 | 34.08637 | -78.91650 | 10596 ft | 193 kts | 327° |
| 2026-05-06 14:55 | 34.09842 | -78.92357 | 10933 ft | 193 kts | 327° |
| 2026-05-06 14:56 | 34.11066 | -78.93076 | 11201 ft | 196 kts | 327° |
| 2026-05-06 14:56 | 34.12287 | -78.93792 | 11463 ft | 198 kts | 327° |
| 2026-05-06 14:56 | 34.13538 | -78.94526 | 11727 ft | 200 kts | 327° |
| 2026-05-06 14:56 | 34.14792 | -78.95261 | 11999 ft | 201 kts | 327° |
| 2026-05-06 14:57 | 34.16058 | -78.96003 | 12283 ft | 202 kts | 327° |
| 2026-05-06 14:57 | 34.17322 | -78.96745 | 12544 ft | 202 kts | 327° |
| 2026-05-06 14:57 | 34.18583 | -78.97485 | 12827 ft | 202 kts | 327° |
| 2026-05-06 14:57 | 34.19844 | -78.98226 | 13104 ft | 201 kts | 327° |
| 2026-05-06 14:58 | 34.21101 | -78.98964 | 13382 ft | 201 kts | 327° |
| 2026-05-06 14:58 | 34.22345 | -78.99696 | 13663 ft | 201 kts | 327° |
| 2026-05-06 14:58 | 34.23606 | -79.00437 | 13944 ft | 202 kts | 327° |
| 2026-05-06 14:58 | 34.24866 | -79.01178 | 14196 ft | 202 kts | 327° |
| 2026-05-06 14:59 | 34.26131 | -79.01922 | 14449 ft | 202 kts | 327° |
| 2026-05-06 14:59 | 34.27399 | -79.02669 | 14708 ft | 202 kts | 327° |
| 2026-05-06 14:59 | 34.28665 | -79.03414 | 14956 ft | 202 kts | 327° |
| 2026-05-06 14:59 | 34.29935 | -79.04162 | 15214 ft | 204 kts | 327° |
| 2026-05-06 15:00 | 34.31222 | -79.04922 | 15478 ft | 206 kts | 328° |
| 2026-05-06 15:00 | 34.32516 | -79.05683 | 15731 ft | 208 kts | 328° |
| 2026-05-06 15:00 | 34.33821 | -79.06452 | 15967 ft | 209 kts | 328° |
| 2026-05-06 15:00 | 34.35133 | -79.07226 | 16212 ft | 210 kts | 328° |
| 2026-05-06 15:01 | 34.36452 | -79.08003 | 16458 ft | 211 kts | 328° |
| 2026-05-06 15:01 | 34.37775 | -79.08784 | 16712 ft | 212 kts | 328° |
| 2026-05-06 15:01 | 34.39103 | -79.09568 | 16964 ft | 213 kts | 328° |
| 2026-05-06 15:01 | 34.40436 | -79.10355 | 17224 ft | 213 kts | 328° |
| 2026-05-06 15:02 | 34.41771 | -79.11144 | 17473 ft | 214 kts | 328° |
| 2026-05-06 15:02 | 34.43085 | -79.11921 | 17729 ft | 215 kts | 328° |
| 2026-05-06 15:02 | 34.44431 | -79.12716 | 17989 ft | 213 kts | 328° |
| 2026-05-06 15:02 | 34.45764 | -79.13504 | 18251 ft | 212 kts | 328° |
| 2026-05-06 15:03 | 34.47083 | -79.14283 | 18501 ft | 211 kts | 328° |
| 2026-05-06 15:03 | 34.48395 | -79.15059 | 18711 ft | 211 kts | 328° |
| 2026-05-06 15:03 | 34.49720 | -79.15843 | 18948 ft | 211 kts | 328° |
| 2026-05-06 15:03 | 34.51038 | -79.16625 | 19184 ft | 211 kts | 328° |
| 2026-05-06 15:04 | 34.52371 | -79.17415 | 19385 ft | 213 kts | 328° |
| 2026-05-06 15:04 | 34.53713 | -79.18211 | 19573 ft | 216 kts | 328° |
| 2026-05-06 15:04 | 34.55051 | -79.19004 | 19757 ft | 218 kts | 328° |
| 2026-05-06 15:04 | 34.56424 | -79.19818 | 19946 ft | 219 kts | 328° |
| 2026-05-06 15:05 | 34.57797 | -79.20632 | 20136 ft | 220 kts | 328° |
| 2026-05-06 15:05 | 34.59171 | -79.21447 | 20323 ft | 221 kts | 328° |
| 2026-05-06 15:05 | 34.60553 | -79.22268 | 20520 ft | 222 kts | 328° |
| 2026-05-06 15:05 | 34.61941 | -79.23093 | 20713 ft | 222 kts | 328° |
| 2026-05-06 15:06 | 34.63330 | -79.23917 | 20905 ft | 223 kts | 327° |
| 2026-05-06 15:06 | 34.64727 | -79.24748 | 21113 ft | 223 kts | 327° |
| 2026-05-06 15:06 | 34.66124 | -79.25579 | 21295 ft | 224 kts | 327° |
| 2026-05-06 15:06 | 34.67522 | -79.26411 | 21488 ft | 224 kts | 327° |
| 2026-05-06 15:07 | 34.68909 | -79.27236 | 21659 ft | 226 kts | 327° |
| 2026-05-06 15:07 | 34.70344 | -79.28090 | 21840 ft | 226 kts | 327° |
| 2026-05-06 15:07 | 34.71763 | -79.28935 | 22005 ft | 228 kts | 327° |
| 2026-05-06 15:07 | 34.73167 | -79.29772 | 22140 ft | 230 kts | 327° |
| 2026-05-06 15:08 | 34.74632 | -79.30646 | 22274 ft | 231 kts | 327° |
| 2026-05-06 15:08 | 34.76059 | -79.31496 | 22396 ft | 233 kts | 327° |
| 2026-05-06 15:08 | 34.77519 | -79.32367 | 22531 ft | 233 kts | 327° |
| 2026-05-06 15:08 | 34.78982 | -79.33239 | 22662 ft | 234 kts | 327° |
| 2026-05-06 15:09 | 34.80453 | -79.34118 | 22793 ft | 235 kts | 327° |
| 2026-05-06 15:09 | 34.81921 | -79.34994 | 22923 ft | 236 kts | 327° |
| 2026-05-06 15:09 | 34.83393 | -79.35874 | 23055 ft | 236 kts | 327° |
| 2026-05-06 15:09 | 34.84865 | -79.36753 | 23189 ft | 236 kts | 327° |
| 2026-05-06 15:10 | 34.86336 | -79.37633 | 23325 ft | 236 kts | 327° |
| 2026-05-06 15:10 | 34.87820 | -79.38520 | 23457 ft | 237 kts | 327° |
| 2026-05-06 15:10 | 34.89295 | -79.39403 | 23585 ft | 236 kts | 327° |
| 2026-05-06 15:10 | 34.90257 | -79.39979 | 23670 ft | 236 kts | 327° |
| 2026-05-06 15:11 | 34.92211 | -79.41149 | 23814 ft | 236 kts | 327° |
| 2026-05-06 15:11 | 34.93707 | -79.42045 | 23889 ft | 236 kts | 326° |
| 2026-05-06 15:11 | 34.95181 | -79.42929 | 23997 ft | 236 kts | 326° |
| 2026-05-06 15:11 | 34.96159 | -79.43516 | 24015 ft | 238 kts | 326° |
| 2026-05-06 15:12 | 34.97660 | -79.44417 | 24018 ft | 242 kts | 326° |
| 2026-05-06 15:12 | 34.99177 | -79.45327 | 24019 ft | 244 kts | 326° |
| 2026-05-06 15:12 | 35.00711 | -79.46247 | 24017 ft | 246 kts | 327° |
| 2026-05-06 15:12 | 35.02253 | -79.47172 | 24021 ft | 247 kts | 326° |
| 2026-05-06 15:13 | 35.03800 | -79.48100 | 24022 ft | 248 kts | 326° |
| 2026-05-06 15:13 | 35.05352 | -79.49033 | 24024 ft | 249 kts | 326° |
| 2026-05-06 15:13 | 35.06908 | -79.49969 | 24025 ft | 249 kts | 326° |
| 2026-05-06 15:13 | 35.08466 | -79.50906 | 24026 ft | 249 kts | 326° |
| 2026-05-06 15:14 | 35.10021 | -79.51842 | 24028 ft | 249 kts | 326° |
| 2026-05-06 15:14 | 35.11580 | -79.52780 | 24028 ft | 249 kts | 326° |
| 2026-05-06 15:14 | 35.13115 | -79.53705 | 24029 ft | 250 kts | 326° |
| 2026-05-06 15:14 | 35.14665 | -79.54638 | 24029 ft | 248 kts | 326° |
| 2026-05-06 15:15 | 35.16212 | -79.55570 | 24033 ft | 246 kts | 326° |
| 2026-05-06 15:15 | 35.17742 | -79.56493 | 24029 ft | 245 kts | 326° |
| 2026-05-06 15:15 | 35.19267 | -79.57415 | 24052 ft | 244 kts | 326° |
| 2026-05-06 15:15 | 35.20789 | -79.58333 | 24050 ft | 243 kts | 325° |
| 2026-05-06 15:16 | 35.22344 | -79.59160 | 24050 ft | 245 kts | 331° |
| 2026-05-06 15:16 | 35.23942 | -79.59895 | 24050 ft | 245 kts | 330° |
| 2026-05-06 15:16 | 35.25525 | -79.60638 | 24052 ft | 244 kts | 330° |
| 2026-05-06 15:16 | 35.27117 | -79.61379 | 24047 ft | 244 kts | 330° |
| 2026-05-06 15:17 | 35.28688 | -79.62104 | 24046 ft | 244 kts | 330° |
| 2026-05-06 15:17 | 35.30277 | -79.62839 | 24046 ft | 243 kts | 330° |
| 2026-05-06 15:17 | 35.31855 | -79.63571 | 24047 ft | 242 kts | 330° |
| 2026-05-06 15:17 | 35.33434 | -79.64304 | 24041 ft | 242 kts | 330° |
| 2026-05-06 15:18 | 35.35012 | -79.65037 | 24041 ft | 242 kts | 330° |
| 2026-05-06 15:18 | 35.36585 | -79.65767 | 24039 ft | 242 kts | 330° |
| 2026-05-06 15:18 | 35.38157 | -79.66498 | 24042 ft | 242 kts | 329° |
| 2026-05-06 15:18 | 35.39736 | -79.67232 | 24039 ft | 242 kts | 329° |
| 2026-05-06 15:19 | 35.41312 | -79.67963 | 24038 ft | 241 kts | 329° |
| 2026-05-06 15:19 | 35.42858 | -79.68682 | 24039 ft | 241 kts | 329° |
| 2026-05-06 15:19 | 35.44426 | -79.69412 | 24038 ft | 240 kts | 329° |
| 2026-05-06 15:19 | 35.45993 | -79.70142 | 24045 ft | 240 kts | 329° |
| 2026-05-06 15:20 | 35.47553 | -79.70868 | 24049 ft | 240 kts | 329° |
| 2026-05-06 15:20 | 35.49109 | -79.71593 | 24045 ft | 239 kts | 329° |
| 2026-05-06 15:20 | 35.50665 | -79.72319 | 24048 ft | 239 kts | 329° |
| 2026-05-06 15:20 | 35.52215 | -79.73041 | 24053 ft | 239 kts | 329° |
| 2026-05-06 15:21 | 35.53770 | -79.73767 | 24055 ft | 238 kts | 329° |
| 2026-05-06 15:21 | 35.55312 | -79.74486 | 24057 ft | 237 kts | 329° |
| 2026-05-06 15:21 | 35.56852 | -79.75205 | 24058 ft | 236 kts | 329° |
| 2026-05-06 15:21 | 35.58386 | -79.75922 | 24062 ft | 235 kts | 329° |
| 2026-05-06 15:22 | 35.59919 | -79.76639 | 24060 ft | 235 kts | 329° |
| 2026-05-06 15:22 | 35.61447 | -79.77353 | 24061 ft | 235 kts | 329° |
| 2026-05-06 15:22 | 35.62957 | -79.78059 | 24063 ft | 235 kts | 329° |
| 2026-05-06 15:22 | 35.64481 | -79.78773 | 24063 ft | 235 kts | 329° |
| 2026-05-06 15:23 | 35.66008 | -79.79487 | 24068 ft | 234 kts | 329° |
| 2026-05-06 15:23 | 35.67530 | -79.80200 | 24070 ft | 234 kts | 329° |
| 2026-05-06 15:23 | 35.69053 | -79.80914 | 24066 ft | 234 kts | 329° |
| 2026-05-06 15:23 | 35.70578 | -79.81628 | 24064 ft | 234 kts | 329° |
| 2026-05-06 15:24 | 35.72101 | -79.82342 | 24063 ft | 234 kts | 329° |
| 2026-05-06 15:24 | 35.73625 | -79.83057 | 24064 ft | 233 kts | 328° |
| 2026-05-06 15:24 | 35.75142 | -79.83768 | 24060 ft | 233 kts | 328° |
| 2026-05-06 15:24 | 35.76656 | -79.84480 | 24059 ft | 232 kts | 328° |
| 2026-05-06 15:25 | 35.78142 | -79.85177 | 24057 ft | 232 kts | 328° |
| 2026-05-06 15:25 | 35.79667 | -79.85894 | 24054 ft | 231 kts | 328° |
| 2026-05-06 15:25 | 35.81151 | -79.86591 | 24052 ft | 231 kts | 328° |
| 2026-05-06 15:25 | 35.82655 | -79.87298 | 24048 ft | 231 kts | 328° |
| 2026-05-06 15:26 | 35.84156 | -79.88005 | 24044 ft | 231 kts | 328° |
| 2026-05-06 15:26 | 35.85655 | -79.88710 | 24041 ft | 230 kts | 328° |
| 2026-05-06 15:26 | 35.87153 | -79.89415 | 24039 ft | 230 kts | 328° |
| 2026-05-06 15:26 | 35.88646 | -79.90118 | 24012 ft | 230 kts | 328° |
| 2026-05-06 15:27 | 35.90142 | -79.90823 | 24015 ft | 229 kts | 328° |
| 2026-05-06 15:27 | 35.91630 | -79.91525 | 24016 ft | 229 kts | 328° |
| 2026-05-06 15:27 | 35.93123 | -79.92228 | 24015 ft | 229 kts | 328° |
| 2026-05-06 15:27 | 35.94609 | -79.92929 | 24013 ft | 228 kts | 328° |
| 2026-05-06 15:28 | 35.96064 | -79.93616 | 24015 ft | 227 kts | 328° |
| 2026-05-06 15:28 | 35.97546 | -79.94316 | 24017 ft | 227 kts | 328° |
| 2026-05-06 15:28 | 35.99017 | -79.95011 | 24016 ft | 226 kts | 328° |
| 2026-05-06 15:28 | 36.00488 | -79.95706 | 24017 ft | 226 kts | 328° |
| 2026-05-06 15:29 | 36.01955 | -79.96399 | 24022 ft | 225 kts | 328° |
| 2026-05-06 15:29 | 36.03419 | -79.97092 | 24020 ft | 225 kts | 328° |
| 2026-05-06 15:29 | 36.04869 | -79.97808 | 24017 ft | 220 kts | 324° |
| 2026-05-06 15:29 | 36.06261 | -79.98606 | 24019 ft | 221 kts | 326° |
| 2026-05-06 15:30 | 36.07677 | -79.99359 | 24021 ft | 221 kts | 326° |
| 2026-05-06 15:30 | 36.09085 | -80.00119 | 24022 ft | 221 kts | 326° |
| 2026-05-06 15:30 | 36.10475 | -80.00886 | 24020 ft | 221 kts | 326° |
| 2026-05-06 15:30 | 36.11875 | -80.01659 | 24022 ft | 221 kts | 326° |
| 2026-05-06 15:31 | 36.13278 | -80.02432 | 24020 ft | 221 kts | 326° |
| 2026-05-06 15:31 | 36.14671 | -80.03198 | 24017 ft | 220 kts | 325° |
| 2026-05-06 15:31 | 36.16076 | -80.03972 | 24017 ft | 219 kts | 325° |
| 2026-05-06 15:32 | 36.18863 | -80.05508 | 24017 ft | 218 kts | 325° |
| 2026-05-06 15:32 | 36.20238 | -80.06267 | 24012 ft | 217 kts | 325° |
| 2026-05-06 15:32 | 36.21619 | -80.07029 | 24011 ft | 217 kts | 325° |
| 2026-05-06 15:32 | 36.22990 | -80.07785 | 24010 ft | 215 kts | 325° |
| 2026-05-06 15:33 | 36.24360 | -80.08542 | 24007 ft | 215 kts | 325° |
| 2026-05-06 15:33 | 36.25748 | -80.09315 | 24004 ft | 221 kts | 325° |
| 2026-05-06 15:33 | 36.27162 | -80.10098 | 23915 ft | 227 kts | 325° |
| 2026-05-06 15:33 | 36.28643 | -80.10921 | 23652 ft | 239 kts | 326° |
| 2026-05-06 15:34 | 36.30171 | -80.11764 | 23350 ft | 246 kts | 326° |
| 2026-05-06 15:34 | 36.31744 | -80.12628 | 23037 ft | 248 kts | 326° |
| 2026-05-06 15:34 | 36.33327 | -80.13500 | 22725 ft | 248 kts | 326° |
| 2026-05-06 15:34 | 36.34906 | -80.14376 | 22414 ft | 248 kts | 326° |
| 2026-05-06 15:35 | 36.36478 | -80.15247 | 22108 ft | 248 kts | 326° |
| 2026-05-06 15:35 | 36.38056 | -80.16123 | 21803 ft | 247 kts | 326° |
| 2026-05-06 15:35 | 36.39621 | -80.16991 | 21503 ft | 247 kts | 326° |
| 2026-05-06 15:35 | 36.41193 | -80.17863 | 21218 ft | 247 kts | 326° |
| 2026-05-06 15:36 | 36.42763 | -80.18735 | 20927 ft | 246 kts | 326° |
| 2026-05-06 15:36 | 36.44323 | -80.19601 | 20635 ft | 246 kts | 326° |
| 2026-05-06 15:36 | 36.45882 | -80.20468 | 20352 ft | 245 kts | 326° |
| 2026-05-06 15:36 | 36.47438 | -80.21333 | 20067 ft | 244 kts | 326° |
| 2026-05-06 15:37 | 36.48991 | -80.22197 | 19784 ft | 244 kts | 326° |
| 2026-05-06 15:37 | 36.50542 | -80.23061 | 19504 ft | 244 kts | 326° |
| 2026-05-06 15:37 | 36.52092 | -80.23923 | 19230 ft | 244 kts | 326° |
| 2026-05-06 15:37 | 36.53618 | -80.24773 | 18961 ft | 243 kts | 326° |
| 2026-05-06 15:38 | 36.55158 | -80.25631 | 18683 ft | 242 kts | 326° |
| 2026-05-06 15:38 | 36.56693 | -80.26487 | 18401 ft | 242 kts | 326° |
| 2026-05-06 15:38 | 36.58224 | -80.27341 | 18107 ft | 241 kts | 326° |
| 2026-05-06 15:38 | 36.59753 | -80.28194 | 17794 ft | 241 kts | 326° |
| 2026-05-06 15:39 | 36.61283 | -80.29048 | 17484 ft | 240 kts | 326° |
| 2026-05-06 15:39 | 36.62812 | -80.29902 | 17171 ft | 240 kts | 327° |
| 2026-05-06 15:39 | 36.64333 | -80.30751 | 16865 ft | 238 kts | 326° |
| 2026-05-06 15:39 | 36.65841 | -80.31594 | 16562 ft | 237 kts | 326° |
| 2026-05-06 15:40 | 36.67346 | -80.32436 | 16264 ft | 236 kts | 326° |
| 2026-05-06 15:40 | 36.68844 | -80.33275 | 15963 ft | 236 kts | 327° |
| 2026-05-06 15:40 | 36.70338 | -80.34111 | 15670 ft | 236 kts | 326° |
| 2026-05-06 15:40 | 36.71834 | -80.34947 | 15382 ft | 235 kts | 326° |
| 2026-05-06 15:41 | 36.73306 | -80.35772 | 15094 ft | 235 kts | 326° |
| 2026-05-06 15:41 | 36.74798 | -80.36608 | 14810 ft | 235 kts | 326° |
| 2026-05-06 15:41 | 36.76283 | -80.37440 | 14554 ft | 234 kts | 326° |
| 2026-05-06 15:41 | 36.77769 | -80.38273 | 14311 ft | 232 kts | 326° |
| 2026-05-06 15:42 | 36.79232 | -80.39094 | 14078 ft | 231 kts | 327° |
| 2026-05-06 15:42 | 36.80701 | -80.39920 | 13849 ft | 230 kts | 326° |
| 2026-05-06 15:42 | 36.82158 | -80.40739 | 13604 ft | 230 kts | 327° |
| 2026-05-06 15:42 | 36.83619 | -80.41560 | 13344 ft | 231 kts | 326° |
| 2026-05-06 15:43 | 36.85087 | -80.42385 | 13078 ft | 231 kts | 327° |
| 2026-05-06 15:43 | 36.86547 | -80.43205 | 12823 ft | 230 kts | 326° |
| 2026-05-06 15:43 | 36.87993 | -80.44019 | 12581 ft | 228 kts | 326° |
| 2026-05-06 15:43 | 36.89447 | -80.44838 | 12339 ft | 228 kts | 326° |
| 2026-05-06 15:44 | 36.90894 | -80.45652 | 12090 ft | 228 kts | 327° |
| 2026-05-06 15:44 | 36.92344 | -80.46468 | 11849 ft | 228 kts | 327° |
| 2026-05-06 15:44 | 36.93795 | -80.47285 | 11610 ft | 229 kts | 326° |
| 2026-05-06 15:44 | 36.95248 | -80.48104 | 11367 ft | 229 kts | 326° |
| 2026-05-06 15:45 | 36.96681 | -80.48912 | 11135 ft | 228 kts | 326° |
| 2026-05-06 15:45 | 36.98116 | -80.49721 | 11026 ft | 222 kts | 326° |
| 2026-05-06 15:45 | 36.99495 | -80.50494 | 11029 ft | 213 kts | 326° |
| 2026-05-06 15:45 | 37.00835 | -80.51253 | 11037 ft | 209 kts | 326° |
| 2026-05-06 15:46 | 37.02158 | -80.52004 | 11037 ft | 208 kts | 326° |
| 2026-05-06 15:46 | 37.03467 | -80.52744 | 11039 ft | 206 kts | 326° |
| 2026-05-06 15:46 | 37.04772 | -80.53481 | 11046 ft | 205 kts | 326° |
| 2026-05-06 15:46 | 37.06064 | -80.54212 | 11051 ft | 203 kts | 325° |
| 2026-05-06 15:47 | 37.07356 | -80.54944 | 11009 ft | 205 kts | 325° |
| 2026-05-06 15:47 | 37.08662 | -80.55689 | 10801 ft | 214 kts | 326° |
| 2026-05-06 15:47 | 37.10055 | -80.56478 | 10590 ft | 219 kts | 326° |
| 2026-05-06 15:47 | 37.11453 | -80.57265 | 10383 ft | 221 kts | 326° |
| 2026-05-06 15:48 | 37.12855 | -80.58057 | 10174 ft | 222 kts | 326° |
| 2026-05-06 15:48 | 37.14267 | -80.58858 | 9965 ft | 223 kts | 326° |
| 2026-05-06 15:48 | 37.15659 | -80.59647 | 9747 ft | 223 kts | 326° |
| 2026-05-06 15:48 | 37.17072 | -80.60448 | 9515 ft | 222 kts | 326° |
| 2026-05-06 15:49 | 37.18482 | -80.61248 | 9290 ft | 222 kts | 326° |
| 2026-05-06 15:49 | 37.19877 | -80.62040 | 9094 ft | 220 kts | 326° |
| 2026-05-06 15:49 | 37.21271 | -80.62829 | 8912 ft | 217 kts | 326° |
| 2026-05-06 15:49 | 37.22643 | -80.63610 | 8734 ft | 216 kts | 326° |
| 2026-05-06 15:50 | 37.24007 | -80.64388 | 8559 ft | 216 kts | 326° |
| 2026-05-06 15:50 | 37.25375 | -80.65166 | 8386 ft | 215 kts | 326° |
| 2026-05-06 15:50 | 37.26736 | -80.65940 | 8200 ft | 214 kts | 326° |
| 2026-05-06 15:50 | 37.28087 | -80.66710 | 8046 ft | 211 kts | 325° |
| 2026-05-06 15:51 | 37.29394 | -80.67449 | 7986 ft | 203 kts | 326° |
| 2026-05-06 15:51 | 37.30677 | -80.68179 | 7861 ft | 201 kts | 325° |
| 2026-05-06 15:51 | 37.31952 | -80.68909 | 7735 ft | 201 kts | 325° |
| 2026-05-06 15:51 | 37.33233 | -80.69642 | 7615 ft | 204 kts | 325° |
| 2026-05-06 15:52 | 37.34528 | -80.70379 | 7525 ft | 207 kts | 321° |
| 2026-05-06 15:52 | 37.35835 | -80.71128 | 7364 ft | 209 kts | 326° |
| 2026-05-06 15:52 | 37.37149 | -80.71875 | 7241 ft | 207 kts | 326° |
| 2026-05-06 15:52 | 37.38459 | -80.72620 | 7113 ft | 206 kts | 326° |
| 2026-05-06 15:53 | 37.39761 | -80.73364 | 7001 ft | 205 kts | 326° |
| 2026-05-06 15:53 | 37.41043 | -80.74095 | 6994 ft | 199 kts | 325° |
| 2026-05-06 15:53 | 37.42295 | -80.74809 | 6996 ft | 196 kts | 323° |
| 2026-05-06 15:53 | 37.43524 | -80.75514 | 6981 ft | 193 kts | 324° |
| 2026-05-06 15:54 | 37.44738 | -80.76209 | 6984 ft | 190 kts | 324° |
| 2026-05-06 15:54 | 37.45938 | -80.76896 | 6980 ft | 189 kts | 324° |
| 2026-05-06 15:54 | 37.47140 | -80.77585 | 6974 ft | 189 kts | 324° |
| 2026-05-06 15:54 | 37.48331 | -80.78266 | 6969 ft | 188 kts | 324° |
| 2026-05-06 15:55 | 37.49121 | -80.78719 | 6968 ft | 189 kts | 324° |
| 2026-05-06 15:55 | 37.50726 | -80.79640 | 6973 ft | 191 kts | 325° |
| 2026-05-06 15:55 | 37.51940 | -80.80335 | 6966 ft | 192 kts | 325° |
| 2026-05-06 15:55 | 37.53140 | -80.81022 | 6970 ft | 192 kts | 325° |
| 2026-05-06 15:56 | 37.54362 | -80.81723 | 6966 ft | 192 kts | 325° |
| 2026-05-06 15:56 | 37.55584 | -80.82424 | 6968 ft | 192 kts | 325° |
| 2026-05-06 15:56 | 37.56388 | -80.82885 | 6967 ft | 191 kts | 325° |
| 2026-05-06 15:56 | 37.57591 | -80.83577 | 6965 ft | 189 kts | 325° |
| 2026-05-06 15:57 | 37.58784 | -80.84264 | 6973 ft | 189 kts | 324° |
| 2026-05-06 15:57 | 37.59981 | -80.84952 | 6975 ft | 188 kts | 324° |
| 2026-05-06 15:57 | 37.61163 | -80.85629 | 6964 ft | 185 kts | 325° |
| 2026-05-06 15:57 | 37.62322 | -80.86294 | 6975 ft | 183 kts | 324° |
| 2026-05-06 15:58 | 37.63496 | -80.86935 | 6977 ft | 188 kts | 332° |
| 2026-05-06 15:58 | 37.64865 | -80.86969 | 6980 ft | 203 kts | 356° |
| 2026-05-06 15:58 | 37.66268 | -80.86713 | 6977 ft | 203 kts | 357° |
| 2026-05-06 15:58 | 37.67667 | -80.86452 | 6985 ft | 204 kts | 356° |
| 2026-05-06 15:59 | 37.69088 | -80.86210 | 6914 ft | 210 kts | 358° |
| 2026-05-06 15:59 | 37.70566 | -80.85965 | 6745 ft | 216 kts | 358° |
| 2026-05-06 15:59 | 37.72070 | -80.85707 | 6582 ft | 218 kts | 356° |
| 2026-05-06 15:59 | 37.73492 | -80.85809 | 6421 ft | 194 kts | 332° |
| 2026-05-06 16:00 | 37.74617 | -80.86566 | 6279 ft | 173 kts | 312° |
| 2026-05-06 16:00 | 37.75291 | -80.87556 | 6276 ft | 130 kts | 297° |
| 2026-05-06 16:00 | 37.75640 | -80.88562 | 6298 ft | 122 kts | 281° |
| 2026-05-06 16:00 | 37.75766 | -80.89521 | 6314 ft | 108 kts | 272° |
| 2026-05-06 16:01 | 37.75875 | -80.90533 | 6087 ft | 122 kts | 275° |
| 2026-05-06 16:01 | 37.75998 | -80.91613 | 5717 ft | 126 kts | 273° |
| 2026-05-06 16:01 | 37.76120 | -80.92713 | 5434 ft | 124 kts | 272° |
| 2026-05-06 16:01 | 37.76235 | -80.93786 | 5273 ft | 127 kts | 272° |
| 2026-05-06 16:02 | 37.76354 | -80.94918 | 5097 ft | 130 kts | 272° |
| 2026-05-06 16:02 | 37.76475 | -80.96045 | 4931 ft | 133 kts | 273° |
| 2026-05-06 16:02 | 37.76604 | -80.97303 | 4754 ft | 154 kts | 274° |
| 2026-05-06 16:02 | 37.76755 | -80.98709 | 4539 ft | 163 kts | 273° |
| 2026-05-06 16:03 | 37.76906 | -81.00088 | 4332 ft | 156 kts | 273° |
| 2026-05-06 16:03 | 37.77048 | -81.01388 | 4140 ft | 140 kts | 272° |
| 2026-05-06 16:03 | 37.77170 | -81.02505 | 3956 ft | 116 kts | 271° |
| 2026-05-06 16:03 | 37.77270 | -81.03491 | 3820 ft | 113 kts | 270° |
| 2026-05-06 16:04 | 37.77370 | -81.04475 | 3666 ft | 115 kts | 271° |
| 2026-05-06 16:04 | 37.77472 | -81.05417 | 3523 ft | 97 kts | 271° |
| 2026-05-06 16:04 | 37.77577 | -81.06218 | 3418 ft | 91 kts | 271° |
| 2026-05-06 16:04 | 37.77663 | -81.06994 | 3303 ft | 89 kts | 269° |
| 2026-05-06 16:05 | 37.77723 | -81.07770 | 3194 ft | 90 kts | 271° |
| 2026-05-06 16:05 | 37.77800 | -81.08571 | 3122 ft | 92 kts | 275° |
| 2026-05-06 16:05 | 37.77882 | -81.09365 | 2965 ft | 90 kts | 278° |
| 2026-05-06 16:05 | 37.77968 | -81.10150 | 2805 ft | 89 kts | 276° |
| 2026-05-06 16:06 | 37.78049 | -81.10928 | 2638 ft | 88 kts | 275° |
| 2026-05-06 16:06 | 37.78124 | -81.11684 | 2522 ft | 85 kts | 278° |
| 2026-05-06 16:06 | 37.78194 | -81.12321 | 2501 ft | 50 kts | 277° |
| 2026-05-06 16:06 | 37.78270 | -81.12423 | 2500 ft | 13 kts | 46° |
| 2026-05-06 16:07 | 37.78258 | -81.12249 | 2501 ft | 24 kts | 98° |
| 2026-05-06 16:07 | 37.78251 | -81.12141 | 2502 ft | 7 kts | 41° |
| 2026-05-06 16:07 | 37.78299 | -81.12086 | 2502 ft | 13 kts | 90° |
| 2026-05-06 16:07 | 37.78294 | -81.12003 | 2502 ft | 8 kts | 94° |
| 2026-05-06 16:08 | 37.78292 | -81.11938 | 2503 ft | 5 kts | 76° |
| 2026-05-06 16:08 | 37.78293 | -81.11930 | 2503 ft | 0 kts | 99° |